Kincheloe, MI (49784)

11:59 PM EST on January 21, 2017 (GMT -0500)
Chippewa County International | | Change Station
Active Advisory: Dense Fog Advisory

Elev 797 ft 46.25 °N, 84.47 °W | Updated 3 minutes ago

Overcast
Overcast
34 °F
Feels Like 26 °F
N
12
Wind Variable Wind from East

Today
High -- | Low -- °F
--% Chance of Precip.
Yesterday
High -- | Low -- °F
Precip. -- in
Pressure 29.69 in
Visibility 1.0 miles
Clouds Overcast 200 ft
Windchill 26 °F
Dew Point 34 °F
Humidity 100%
Rainfall 0.04 in
Snow Depth Not available.
8:12 AM 5:27 PM
Waning Crescent, 29% visible
METAR KCIU 220456Z AUTO 10010KT 1SM BR OVC002 01/01 A2960 RMK AO2 RAE55 SLP052 P0004 T00110011 400170000 FZRANO
Pressure 29.69 in
Visibility 1.0 miles
Clouds Overcast 200 ft
Windchill 26 °F
Dew Point 34 °F
Humidity 100%
Rainfall 0.04 in
Snow Depth Not available.
8:12 AM 5:27 PM
Waning Crescent, 29% visible
METAR KCIU 220456Z AUTO 10010KT 1SM BR OVC002 01/01 A2960 RMK AO2 RAE55 SLP052 P0004 T00110011 400170000 FZRANO

Get Your Daily Forecast Email!

Thanks for signing up!

Be on the lookout for a verification email in your inbox.

You'll start receiving the daily forecast at 8 AM.

×

10-Day Weather Forecast

Almanac

Astronomy

Jan. 21, 2017 Rise Set
Actual Time
Civil Twilight
Nautical Twilight
Astronomical Twilight
Moon
Length of Visible Light
Length of Day
Tomorrow will be .
, % of the Moon is Illuminated

Today's Extremes

State Highs State Lows

Community

WunderPhotos

Upload Photos

1,962,540 photos uploaded!

WunderBlog® & News

Nearby

Air Quality

  Air Quality AQ Index Pollutant
Not available.

Snow Depth

Station Depth Elevation

Earthquake Activity

City Distance Mag. Time & Date
Minimum magnitude displayed is 2.5.

Coastal Water Temperatures

Place Temperature

Stations

Nearby Weather Stations

Station Location Temp. Windchill Dew Point Humidity Wind Precip. Elev Updated Type
                   

Watches & Warnings

Dense Fog Advisory
Issued: 9:53 PM EST Jan. 21, 2017 – National Weather Service

... Dense fog advisory remains in effect until 1 PM EST Sunday...

* visibility... dense fog will continue to impact all of northern
Michigan through Sunday morning... with visibilities of one
quarter of a mile or less.

* Impacts... low visibilities will lead to difficult driving
conditions.

Precautionary/preparedness actions...

A dense fog advisory means visibilities will frequently be
reduced to less than one quarter mile. If driving... slow down...
use your headlights... and leave plenty of distance ahead of you.